Time;durP1;ratioP1;P1;durP2;ratioP2;P2;SDS_P1;SDS_P2;PMS_P1;PMS_P2;Temp;Humidity;BMP_temperature;BMP_pressure;BME280_temperature;BME280_humidity;BME280_pressure;Samples;Min_cycle;Max_cycle;Signal;HPM_P1;HPM_P2
2021/03/25 00:00:38;;;;;;;29.38;17.00;;;7.30;95.70;;;;;;5090091;28;20055;-50
2021/03/25 00:03:08;;;;;;;30.23;16.88;;;7.30;95.90;;;;;;5091082;28;20032;-50
2021/03/25 00:05:34;;;;;;;33.53;17.80;;;7.40;95.70;;;;;;5073045;28;20030;-51
2021/03/25 00:08:00;;;;;;;28.70;15.68;;;7.50;95.30;;;;;;5091057;28;20028;-52
2021/03/25 00:10:30;;;;;;;31.10;16.67;;;7.50;95.40;;;;;;5089969;28;20025;-54
2021/03/25 00:12:56;;;;;;;32.70;16.73;;;7.50;95.40;;;;;;5090613;28;20024;-56
2021/03/25 00:15:22;;;;;;;31.25;17.65;;;7.50;95.50;;;;;;5090918;28;20385;-50
2021/03/25 00:17:47;;;;;;;26.63;15.27;;;7.50;95.70;;;;;;5090959;28;20013;-50
2021/03/25 00:20:14;;;;;;;26.77;16.23;;;7.50;95.50;;;;;;5090897;28;20038;-48
2021/03/25 00:22:40;;;;;;;29.55;16.65;;;7.50;95.50;;;;;;5090366;28;20345;-47
2021/03/25 00:25:08;;;;;;;26.25;15.18;;;7.50;95.60;;;;;;5090891;28;20114;-47
2021/03/25 00:27:33;;;;;;;27.35;15.50;;;7.60;95.40;;;;;;5090544;28;20493;-48
2021/03/25 00:29:59;;;;;;;25.00;14.25;;;7.60;95.20;;;;;;5072796;28;20020;-51
2021/03/25 00:32:25;;;;;;;26.20;16.30;;;7.70;95.30;;;;;;5090612;28;20056;-53
2021/03/25 00:34:51;;;;;;;26.35;15.10;;;7.80;95.10;;;;;;5090331;28;20393;-51
2021/03/25 00:37:16;;;;;;;32.70;17.20;;;7.90;95.10;;;;;;5072064;28;20024;-53
2021/03/25 00:39:42;;;;;;;29.75;15.52;;;7.90;94.90;;;;;;5090292;28;20024;-49
2021/03/25 00:42:07;;;;;;;27.58;16.00;;;7.80;94.90;;;;;;5090359;28;20027;-49
2021/03/25 00:44:33;;;;;;;26.08;16.30;;;7.80;94.80;;;;;;5071857;28;20371;-49
2021/03/25 00:46:59;;;;;;;26.77;15.98;;;7.70;95.00;;;;;;5090334;28;20051;-52
2021/03/25 00:49:24;;;;;;;30.00;15.50;;;7.70;95.20;;;;;;5090488;28;20393;-50
2021/03/25 00:51:50;;;;;;;24.45;15.43;;;7.60;95.10;;;;;;5090807;28;20049;-51
2021/03/25 00:54:16;;;;;;;24.35;15.63;;;7.60;95.50;;;;;;5090125;28;20099;-51
2021/03/25 00:56:41;;;;;;;35.08;17.95;;;7.50;95.50;;;;;;5072237;28;20029;-49
2021/03/25 00:59:07;;;;;;;29.25;16.85;;;7.50;95.10;;;;;;5105691;22;20037;-52
2021/03/25 01:01:33;;;;;;;30.85;17.90;;;7.40;95.50;;;;;;5108593;28;20036;-53
2021/03/25 01:03:58;;;;;;;28.50;16.75;;;7.40;95.80;;;;;;5091794;28;20049;-47
2021/03/25 01:06:24;;;;;;;32.05;17.10;;;7.30;95.80;;;;;;5110819;28;20043;-53
2021/03/25 01:08:50;;;;;;;29.27;16.48;;;7.20;95.90;;;;;;5110923;28;20055;-54
2021/03/25 01:11:27;;;;;;;30.23;17.58;;;7.00;96.10;;;;;;5110485;28;20062;-53
2021/03/25 01:13:57;;;;;;;30.10;17.13;;;6.90;96.80;;;;;;5091727;28;20076;-53
2021/03/25 01:16:34;;;;;;;30.75;17.73;;;7.00;96.70;;;;;;5110489;28;20115;-49
2021/03/25 01:19:04;;;;;;;32.38;16.08;;;7.00;96.90;;;;;;5110302;28;20041;-48
2021/03/25 01:21:29;;;;;;;26.42;15.95;;;6.90;96.90;;;;;;5112078;28;20084;-50
2021/03/25 01:23:55;;;;;;;30.33;19.00;;;6.80;96.80;;;;;;5113167;28;20023;-48
2021/03/25 01:26:21;;;;;;;26.35;16.42;;;6.80;96.80;;;;;;5113803;28;20043;-52
2021/03/25 01:28:47;;;;;;;30.05;17.05;;;6.90;97.60;;;;;;5114231;28;20016;-49
2021/03/25 01:31:12;;;;;;;30.42;18.08;;;7.00;98.20;;;;;;5113825;28;20019;-49
2021/03/25 01:33:38;;;;;;;26.25;16.52;;;7.00;97.40;;;;;;5113248;28;20027;-51
2021/03/25 01:36:04;;;;;;;28.58;16.65;;;7.10;97.90;;;;;;5113768;28;20516;-49
2021/03/25 01:38:29;;;;;;;28.05;17.48;;;7.10;97.20;;;;;;5113661;28;20031;-49
2021/03/25 01:40:58;;;;;;;27.58;16.42;;;7.10;97.90;;;;;;5113676;28;20032;-50
2021/03/25 01:43:42;;;;;;;26.58;15.57;;;7.10;96.70;;;;;;5112884;28;20042;-53
2021/03/25 01:46:21;;;;;;;29.40;18.45;;;7.00;96.50;;;;;;5113618;28;20019;-54
2021/03/25 01:48:50;;;;;;;30.30;16.40;;;6.90;97.10;;;;;;5113666;28;20044;-50
2021/03/25 01:51:41;;;;;;;28.92;17.02;;;6.80;97.00;;;;;;5094895;28;20015;-48
2021/03/25 01:54:31;;;;;;;25.83;17.05;;;6.60;97.20;;;;;;5112767;28;20027;-51
2021/03/25 01:57:13;;;;;;;26.38;15.60;;;6.70;96.80;;;;;;5113210;28;20085;-54
2021/03/25 02:00:03;;;;;;;31.45;17.92;;;6.60;96.70;;;;;;5113131;28;20034;-53
2021/03/25 02:02:52;;;;;;;29.88;17.05;;;6.40;97.20;;;;;;5094452;28;20420;-49
2021/03/25 02:05:22;;;;;;;26.42;16.10;;;6.30;97.50;;;;;;5094629;28;20023;-50
2021/03/25 02:08:10;;;;;;;27.83;15.10;;;6.20;97.50;;;;;;5094734;28;20034;-49
2021/03/25 02:11:08;;;;;;;29.88;16.25;;;6.10;97.70;;;;;;5094620;28;20022;-51
2021/03/25 02:13:54;;;;;;;26.63;15.82;;;6.10;97.80;;;;;;5112202;28;20074;-52
2021/03/25 02:16:28;;;;;;;33.17;14.88;;;6.00;97.70;;;;;;5112820;28;20415;-50
2021/03/25 02:19:02;;;;;;;31.13;15.05;;;5.90;98.00;;;;;;5112851;28;20035;-49
2021/03/25 02:21:42;;;;;;;24.88;15.43;;;5.90;98.20;;;;;;5112723;28;20076;-52
2021/03/25 02:24:11;;;;;;;28.10;16.38;;;5.80;98.30;;;;;;5112045;28;20023;-54
2021/03/25 02:27:07;;;;;;;28.85;16.27;;;5.80;98.70;;;;;;5112670;28;20031;-49
2021/03/25 02:29:56;;;;;;;25.80;15.83;;;5.70;98.70;;;;;;5112621;28;20026;-49
2021/03/25 02:32:47;;;;;;;26.10;17.02;;;5.70;98.80;;;;;;5111774;28;20047;-51
2021/03/25 02:35:43;;;;;;;23.33;14.23;;;5.80;98.80;;;;;;5097808;28;20027;-52
2021/03/25 02:38:15;;;;;;;24.77;14.68;;;5.80;98.80;;;;;;5091408;28;20032;-49
2021/03/25 02:40:45;;;;;;;24.88;15.20;;;5.80;98.60;;;;;;5112329;28;20064;-52
2021/03/25 02:43:16;;;;;;;31.27;15.18;;;5.80;98.70;;;;;;5093168;28;20136;-49
2021/03/25 02:46:02;;;;;;;24.33;15.52;;;5.80;99.10;;;;;;5112311;28;20032;-53
2021/03/25 02:48:30;;;;;;;25.17;16.77;;;5.70;99.30;;;;;;5093903;28;20096;-52
2021/03/25 02:51:02;;;;;;;24.38;15.50;;;5.70;99.30;;;;;;5112126;28;20217;-49
2021/03/25 02:53:40;;;;;;;30.83;16.20;;;5.70;99.50;;;;;;5093204;28;20020;-49
2021/03/25 02:56:23;;;;;;;22.52;14.23;;;5.60;99.30;;;;;;5093758;28;20404;-50
2021/03/25 02:59:04;;;;;;;29.67;17.10;;;5.60;99.40;;;;;;5112006;28;20114;-50
2021/03/25 03:01:34;;;;;;;24.95;15.27;;;5.50;99.30;;;;;;5112056;28;20046;-49
2021/03/25 03:04:11;;;;;;;28.30;15.73;;;5.50;99.40;;;;;;5111285;28;20110;-49
2021/03/25 03:06:44;;;;;;;25.75;14.40;;;5.50;99.30;;;;;;5111874;28;20523;-50
2021/03/25 03:09:15;;;;;;;28.95;16.40;;;5.50;99.20;;;;;;5093534;28;20024;-49
2021/03/25 03:11:44;;;;;;;28.48;15.45;;;5.50;99.30;;;;;;5111933;28;20069;-52
2021/03/25 03:14:17;;;;;;;26.23;15.45;;;5.50;99.50;;;;;;5110992;28;20024;-50
2021/03/25 03:16:48;;;;;;;27.70;16.25;;;5.50;99.50;;;;;;5111857;28;20038;-52
2021/03/25 03:19:29;;;;;;;22.48;14.75;;;5.40;99.50;;;;;;5111656;28;20362;-51
2021/03/25 03:22:01;;;;;;;25.17;15.57;;;5.30;99.80;;;;;;5093409;28;20032;-54
2021/03/25 03:24:27;;;;;;;24.92;14.43;;;5.30;99.90;;;;;;5110871;28;20089;-55
2021/03/25 03:27:15;;;;;;;24.70;14.77;;;5.30;99.90;;;;;;5111309;28;20565;-52
2021/03/25 03:29:43;;;;;;;25.25;15.77;;;5.30;99.90;;;;;;5111492;28;20396;-51
2021/03/25 03:32:33;;;;;;;23.15;14.85;;;5.20;99.90;;;;;;5111484;28;20116;-52
2021/03/25 03:35:05;;;;;;;25.70;15.70;;;5.20;99.90;;;;;;5111224;28;20478;-50
2021/03/25 03:37:42;;;;;;;24.25;14.30;;;5.20;99.90;;;;;;5111426;28;20028;-49
2021/03/25 03:40:14;;;;;;;27.80;15.23;;;5.10;99.80;;;;;;5109708;28;20019;-55
2021/03/25 03:42:41;;;;;;;22.58;14.50;;;5.10;99.80;;;;;;5110674;28;20028;-54
2021/03/25 03:45:09;;;;;;;24.15;13.55;;;5.10;99.70;;;;;;5111478;28;20047;-51
2021/03/25 03:47:37;;;;;;;21.15;13.27;;;5.10;99.80;;;;;;5102851;28;20512;-49
2021/03/25 03:50:30;;;;;;;21.45;13.60;;;5.10;99.90;;;;;;5072655;28;20370;-50
2021/03/25 03:52:56;;;;;;;24.70;14.57;;;5.10;99.90;;;;;;5081446;28;20016;-49
2021/03/25 03:55:23;;;;;;;27.77;14.80;;;5.10;99.90;;;;;;5109477;28;20027;-54
2021/03/25 03:58:11;;;;;;;22.13;14.23;;;5.10;99.70;;;;;;5111165;28;20028;-51
2021/03/25 04:00:44;;;;;;;24.95;13.90;;;5.10;99.60;;;;;;5084845;28;20084;-52
2021/03/25 04:03:47;;;;;;;21.50;14.45;;;5.10;99.90;;;;;;5089922;28;20024;-51
2021/03/25 04:06:21;;;;;;;25.35;13.65;;;5.10;99.90;;;;;;5091785;28;20120;-50
2021/03/25 04:09:07;;;;;;;21.50;15.55;;;5.00;99.60;;;;;;5090602;28;20508;-50
2021/03/25 04:11:41;;;;;;;22.10;13.90;;;4.90;99.90;;;;;;5100648;28;20047;-54
2021/03/25 04:14:15;;;;;;;23.35;12.95;;;4.90;99.90;;;;;;5091771;28;20020;-55
2021/03/25 04:16:43;;;;;;;21.55;12.60;;;4.90;99.90;;;;;;5110942;28;20027;-55
2021/03/25 04:19:22;;;;;;;19.90;13.27;;;4.90;99.90;;;;;;5109919;28;20039;-50
2021/03/25 04:21:54;;;;;;;22.40;13.57;;;4.80;99.90;;;;;;5110927;28;20500;-53
2021/03/25 04:24:24;;;;;;;23.80;14.10;;;4.70;99.90;;;;;;5108479;28;20028;-54
2021/03/25 04:27:01;;;;;;;23.17;12.95;;;4.60;99.90;;;;;;5106830;28;20115;-54
2021/03/25 04:29:31;;;;;;;20.13;12.18;;;4.70;99.90;;;;;;5090300;28;20492;-50
2021/03/25 04:31:58;;;;;;;22.67;13.43;;;4.70;99.90;;;;;;5075990;28;20023;-54
2021/03/25 04:34:25;;;;;;;21.63;12.65;;;4.60;99.90;;;;;;5109994;28;20426;-53
2021/03/25 04:36:52;;;;;;;24.10;12.93;;;4.40;99.90;;;;;;5095754;28;20036;-49
2021/03/25 04:39:19;;;;;;;25.08;13.90;;;4.40;99.90;;;;;;5101228;28;20559;-50
2021/03/25 04:41:46;;;;;;;18.13;12.40;;;4.30;99.90;;;;;;5110443;28;20434;-54
2021/03/25 04:44:35;;;;;;;19.92;12.95;;;4.30;99.90;;;;;;5091448;28;20024;-53
2021/03/25 04:47:17;;;;;;;24.13;16.58;;;4.40;99.90;;;;;;5110580;28;20020;-54
2021/03/25 04:49:47;;;;;;;23.45;12.68;;;4.50;99.90;;;;;;5110440;28;20016;-46
2021/03/25 04:52:25;;;;;;;23.65;13.52;;;4.50;99.90;;;;;;5110462;28;20024;-52
2021/03/25 04:54:52;;;;;;;21.30;14.25;;;4.40;99.90;;;;;;5109871;28;20068;-53
2021/03/25 04:57:21;;;;;;;21.35;14.13;;;4.30;99.90;;;;;;5113665;28;20019;-49
2021/03/25 04:59:46;;;;;;;20.33;13.48;;;4.20;99.90;;;;;;5114346;28;20071;-49
2021/03/25 05:02:12;;;;;;;23.45;13.55;;;4.30;99.90;;;;;;5114684;28;20051;-46
2021/03/25 05:04:45;;;;;;;26.08;12.93;;;4.30;99.90;;;;;;5113686;28;20043;-49
2021/03/25 05:07:17;;;;;;;29.48;14.32;;;4.30;99.90;;;;;;5100810;28;20581;-47
2021/03/25 05:09:43;;;;;;;22.70;12.88;;;4.20;99.90;;;;;;5101050;28;20098;-47
2021/03/25 05:12:15;;;;;;;22.73;12.88;;;4.20;99.90;;;;;;5113316;27;20432;-51
2021/03/25 05:14:42;;;;;;;23.38;13.07;;;4.20;99.90;;;;;;5095116;28;20028;-49
2021/03/25 05:17:31;;;;;;;24.25;13.95;;;4.10;99.90;;;;;;5113851;28;20074;-47
2021/03/25 05:20:14;;;;;;;27.98;17.80;;;4.10;99.90;;;;;;5095729;28;20019;-49
2021/03/25 05:22:47;;;;;;;24.15;14.38;;;4.10;99.90;;;;;;5113317;28;20038;-46
2021/03/25 05:25:24;;;;;;;24.45;14.30;;;4.10;99.90;;;;;;5113949;28;20027;-49
2021/03/25 05:27:59;;;;;;;22.42;14.07;;;4.20;99.90;;;;;;5113987;28;20671;-50
2021/03/25 05:30:30;;;;;;;19.07;12.83;;;4.20;99.90;;;;;;5095448;28;20074;-47
2021/03/25 05:33:01;;;;;;;31.10;22.48;;;4.20;99.90;;;;;;5113300;28;20035;-49
2021/03/25 05:35:34;;;;;;;39.50;27.90;;;4.30;99.90;;;;;;5113894;28;20024;-50
2021/03/25 05:38:00;;;;;;;33.78;22.13;;;4.40;99.90;;;;;;5113836;28;20027;-47
2021/03/25 05:40:46;;;;;;;30.30;19.40;;;4.50;99.90;;;;;;5114087;28;20026;-51
2021/03/25 05:43:30;;;;;;;;;;;4.60;99.90;;;;;;5113437;28;20473;-50
2021/03/25 05:46:33;;;;;;;24.48;16.13;;;4.70;99.90;;;;;;5095153;28;19907;-50
2021/03/25 05:49:27;;;;;;;28.77;22.05;;;4.80;99.90;;;;;;5113452;28;20024;-48
2021/03/25 05:52:17;;;;;;;26.38;23.08;;;5.10;99.90;;;;;;5067563;28;20036;-48
2021/03/25 05:55:07;;;;;;;22.80;17.38;;;5.20;99.40;;;;;;5094376;28;20020;-52
2021/03/25 05:58:23;;;;;;;39.85;24.15;;;5.30;99.40;;;;;;5113128;28;20023;-48
2021/03/25 06:01:31;;;;;;;24.17;19.15;;;5.30;99.30;;;;;;5113150;28;20027;-50
2021/03/25 06:03:59;;;;;;;25.80;21.48;;;5.40;98.80;;;;;;5112627;28;20181;-46
2021/03/25 06:06:40;;;;;;;28.50;20.15;;;5.40;98.90;;;;;;5113072;28;20034;-52
2021/03/25 06:09:17;;;;;;;30.15;22.73;;;5.30;99.50;;;;;;5111159;28;20027;-52
2021/03/25 06:11:58;;;;;;;29.67;18.50;;;5.40;99.00;;;;;;5108843;28;20034;-46
2021/03/25 06:14:55;;;;;;;27.92;17.10;;;5.40;99.00;;;;;;5105109;28;20020;-48
2021/03/25 06:17:39;;;;;;;29.08;17.42;;;5.50;98.90;;;;;;5112743;28;20027;-48
2021/03/25 06:20:19;;;;;;;29.35;15.45;;;5.50;99.10;;;;;;5111928;28;20488;-53
2021/03/25 06:23:03;;;;;;;22.02;14.57;;;5.60;99.20;;;;;;5092575;28;20111;-53
2021/03/25 06:25:51;;;;;;;20.88;13.80;;;5.60;99.20;;;;;;5092269;28;20028;-51
2021/03/25 06:28:55;;;;;;;24.27;13.95;;;5.50;98.70;;;;;;5097696;28;20396;-53
2021/03/25 06:31:54;;;;;;;24.08;14.05;;;5.40;99.10;;;;;;5111705;28;20015;-52
2021/03/25 06:34:30;;;;;;;23.10;14.07;;;5.40;99.40;;;;;;5101092;28;20039;-51
2021/03/25 06:37:05;;;;;;;27.95;15.10;;;5.70;99.70;;;;;;5083907;28;20035;-51
2021/03/25 06:40:08;;;;;;;23.40;14.32;;;6.00;99.20;;;;;;5106981;28;20019;-54
2021/03/25 06:42:51;;;;;;;23.88;14.90;;;6.20;98.50;;;;;;5029244;28;20654;-47
2021/03/25 06:45:28;;;;;;;22.65;14.73;;;6.40;97.80;;;;;;5111845;28;20032;-52
2021/03/25 06:48:16;;;;;;;20.90;13.85;;;6.60;97.60;;;;;;5111999;28;20070;-54
2021/03/25 06:50:47;;;;;;;20.73;14.75;;;6.80;97.20;;;;;;5091921;28;20016;-50
2021/03/25 06:53:24;;;;;;;25.80;15.02;;;7.10;97.10;;;;;;5092259;28;20518;-50
2021/03/25 06:55:59;;;;;;;29.25;14.63;;;7.40;96.50;;;;;;5073601;28;20469;-48
2021/03/25 06:58:29;;;;;;;21.35;14.45;;;7.80;96.00;;;;;;5106474;28;20020;-52
2021/03/25 07:01:04;;;;;;;20.38;13.80;;;8.20;95.40;;;;;;5093872;28;20043;-49
2021/03/25 07:03:31;;;;;;;20.60;13.38;;;8.60;94.60;;;;;;5090923;28;20642;-51
2021/03/25 07:05:59;;;;;;;19.52;13.52;;;8.80;94.00;;;;;;5078171;28;20458;-53
2021/03/25 07:08:28;;;;;;;25.48;14.60;;;9.10;93.50;;;;;;5107690;28;20062;-52
2021/03/25 07:10:58;;;;;;;23.92;15.35;;;9.50;93.40;;;;;;5090179;28;20020;-52
2021/03/25 07:13:39;;;;;;;29.73;14.30;;;9.90;93.00;;;;;;5091047;28;20245;-50
2021/03/25 07:16:06;;;;;;;19.63;13.70;;;10.50;92.00;;;;;;5100602;28;20031;-51
2021/03/25 07:18:37;;;;;;;20.92;14.18;;;10.90;90.90;;;;;;5101531;28;20031;-48
2021/03/25 07:21:27;;;;;;;20.63;14.63;;;11.10;90.40;;;;;;5106203;28;20168;-55
2021/03/25 07:23:55;;;;;;;23.85;14.45;;;11.30;89.80;;;;;;5111096;28;20111;-54
2021/03/25 07:26:37;;;;;;;21.25;13.80;;;11.10;90.70;;;;;;5108984;28;20028;-57
2021/03/25 07:29:10;;;;;;;19.02;13.77;;;11.20;90.50;;;;;;5104463;28;20031;-58
2021/03/25 07:31:43;;;;;;;21.88;14.60;;;11.40;90.40;;;;;;5101242;28;20023;-53
2021/03/25 07:34:09;;;;;;;20.20;14.90;;;11.50;89.90;;;;;;5110054;28;20053;-58
2021/03/25 07:36:50;;;;;;;20.98;13.45;;;11.30;90.10;;;;;;5110254;28;20028;-58
2021/03/25 07:39:24;;;;;;;22.38;13.90;;;11.30;89.90;;;;;;5072663;28;20028;-59
2021/03/25 07:41:51;;;;;;;24.15;14.68;;;11.20;90.70;;;;;;5092187;28;20024;-59
2021/03/25 07:44:36;;;;;;;22.10;15.15;;;11.40;90.20;;;;;;5091056;28;20023;-58
2021/03/25 07:47:06;;;;;;;20.08;13.57;;;11.30;90.50;;;;;;5091615;28;20378;-59
2021/03/25 07:49:38;;;;;;;24.27;14.65;;;11.40;90.60;;;;;;5091964;28;20020;-55
2021/03/25 07:52:27;;;;;;;23.15;14.85;;;11.60;90.20;;;;;;5111405;28;20034;-54
2021/03/25 07:54:53;;;;;;;19.33;14.43;;;11.90;90.10;;;;;;5103299;28;20081;-56
2021/03/25 07:57:21;;;;;;;29.92;14.70;;;12.30;88.70;;;;;;5090990;28;20028;-53
2021/03/25 07:59:51;;;;;;;22.13;14.57;;;12.50;87.10;;;;;;5088821;28;20038;-55
2021/03/25 08:02:42;;;;;;;31.95;14.30;;;12.50;86.90;;;;;;5090786;28;20020;-52
2021/03/25 08:05:19;;;;;;;21.95;14.40;;;12.20;87.40;;;;;;5072386;28;20466;-54
2021/03/25 08:07:46;;;;;;;20.17;14.35;;;11.70;88.70;;;;;;5090643;28;20485;-54
2021/03/25 08:10:42;;;;;;;20.80;15.40;;;11.40;90.70;;;;;;5090424;28;20031;-55
2021/03/25 08:13:24;;;;;;;20.60;13.80;;;11.10;91.10;;;;;;5072550;28;20036;-55
2021/03/25 08:16:11;;;;;;;27.15;16.17;;;11.00;91.70;;;;;;5090547;28;20028;-53
2021/03/25 08:18:54;;;;;;;25.55;14.50;;;10.80;92.60;;;;;;5089554;28;20028;-52
2021/03/25 08:21:54;;;;;;;23.05;15.38;;;10.70;92.60;;;;;;5090189;28;20111;-55
2021/03/25 08:24:48;;;;;;;21.63;13.82;;;10.40;92.50;;;;;;5089608;28;20039;-53
2021/03/25 08:27:43;;;;;;;17.65;14.00;;;10.40;93.00;;;;;;5071903;28;20027;-55
2021/03/25 08:30:33;;;;;;;17.58;13.73;;;10.20;93.20;;;;;;5090131;28;20035;-56
2021/03/25 08:33:24;;;;;;;23.73;13.80;;;10.20;94.10;;;;;;5093505;28;20034;-56
2021/03/25 08:36:22;;;;;;;23.83;15.52;;;10.30;93.90;;;;;;5076489;28;20123;-57
2021/03/25 08:39:19;;;;;;;21.65;15.13;;;10.30;93.90;;;;;;5094422;28;20016;-53
2021/03/25 08:41:48;;;;;;;21.17;15.43;;;10.20;94.00;;;;;;5094492;28;20385;-55
2021/03/25 08:44:34;;;;;;;23.55;15.60;;;10.30;93.80;;;;;;5093619;28;20028;-53
2021/03/25 08:47:08;;;;;;;22.35;14.75;;;10.30;93.70;;;;;;5094104;28;20039;-53
2021/03/25 08:49:41;;;;;;;22.08;15.27;;;10.20;94.10;;;;;;5075895;28;20417;-57
2021/03/25 08:52:14;;;;;;;22.35;15.75;;;10.20;94.20;;;;;;5094228;28;20032;-52
2021/03/25 08:54:46;;;;;;;20.95;14.85;;;10.30;94.00;;;;;;5095398;28;20477;-49
2021/03/25 08:57:23;;;;;;;20.25;14.43;;;10.50;94.10;;;;;;5076860;28;20031;-49
2021/03/25 09:00:05;;;;;;;25.65;15.50;;;11.00;94.10;;;;;;5093780;28;20036;-54
2021/03/25 09:02:36;;;;;;;22.38;15.35;;;11.70;92.60;;;;;;5111946;28;20576;-52
2021/03/25 09:05:16;;;;;;;19.98;14.52;;;12.40;91.50;;;;;;5114305;28;20031;-56
2021/03/25 09:07:42;;;;;;;26.10;14.00;;;13.10;90.30;;;;;;5107790;28;20020;-50
2021/03/25 09:10:46;;;;;;;19.45;14.23;;;13.80;87.70;;;;;;5114022;28;20042;-47
2021/03/25 09:13:14;;;;;;;23.30;12.73;;;14.50;83.80;;;;;;5113024;28;20051;-45
2021/03/25 09:15:42;;;;;;;24.77;12.77;;;15.00;81.20;;;;;;5114016;28;20027;-54
2021/03/25 09:18:13;;;;;;;14.70;12.57;;;15.30;79.40;;;;;;5098744;28;20034;-57
2021/03/25 09:20:42;;;;;;;16.77;12.38;;;15.30;77.90;;;;;;5103850;28;20023;-61
2021/03/25 09:23:30;;;;;;;18.83;13.32;;;15.70;77.80;;;;;;5112176;28;20028;-58
2021/03/25 09:26:09;;;;;;;19.17;12.63;;;16.00;76.70;;;;;;5092537;28;20425;-53
2021/03/25 09:28:53;;;;;;;21.17;13.30;;;16.10;75.90;;;;;;5092565;28;20024;-47
2021/03/25 09:31:20;;;;;;;22.73;12.45;;;15.90;75.30;;;;;;5093672;28;20108;-47
2021/03/25 09:33:54;;;;;;;16.17;11.82;;;15.70;75.90;;;;;;5104670;28;20086;-53
2021/03/25 09:36:20;;;;;;;19.05;13.23;;;15.70;75.40;;;;;;5110218;28;20059;-54
2021/03/25 09:38:57;;;;;;;19.38;12.88;;;15.70;75.50;;;;;;5112411;28;20055;-55
2021/03/25 09:41:26;;;;;;;17.65;12.68;;;15.60;74.50;;;;;;5102607;28;20035;-52
2021/03/25 09:44:17;;;;;;;16.38;12.38;;;15.50;75.00;;;;;;5091823;28;20105;-52
2021/03/25 09:47:03;;;;;;;16.92;12.35;;;15.30;76.40;;;;;;5091266;28;20397;-52
2021/03/25 09:49:33;;;;;;;19.55;12.52;;;15.00;77.20;;;;;;5078892;28;20268;-52
2021/03/25 09:52:07;;;;;;;20.65;12.60;;;15.10;76.90;;;;;;5111589;28;20108;-52
2021/03/25 09:54:36;;;;;;;16.30;12.33;;;15.00;77.60;;;;;;5111094;28;20068;-53
2021/03/25 09:57:34;;;;;;;15.45;11.25;;;15.10;77.30;;;;;;5091518;28;20031;-51
2021/03/25 10:00:27;;;;;;;19.95;12.23;;;15.20;76.30;;;;;;5103878;28;20525;-54
2021/03/25 10:03:01;;;;;;;19.55;12.00;;;15.20;75.90;;;;;;5090923;28;20154;-55
2021/03/25 10:05:36;;;;;;;15.48;11.73;;;15.40;74.40;;;;;;5075359;28;20030;-52
2021/03/25 10:08:18;;;;;;;19.38;12.32;;;15.70;75.00;;;;;;5077862;28;20023;-55
2021/03/25 10:11:00;;;;;;;14.98;10.77;;;15.70;75.00;;;;;;5092914;28;20028;-52
2021/03/25 10:13:35;;;;;;;15.20;10.75;;;15.80;72.50;;;;;;5097150;28;20016;-49
2021/03/25 10:16:04;;;;;;;13.23;10.52;;;15.80;71.50;;;;;;5093806;28;20396;-52
2021/03/25 10:18:30;;;;;;;15.88;11.02;;;15.80;71.00;;;;;;5107793;28;20473;-50
2021/03/25 10:20:59;;;;;;;23.10;10.80;;;15.70;70.10;;;;;;5099810;28;20059;-47
2021/03/25 10:23:25;;;;;;;20.50;11.75;;;15.60;71.90;;;;;;5103126;28;20047;-58
2021/03/25 10:26:11;;;;;;;19.65;11.95;;;15.50;73.50;;;;;;5103812;28;20035;-54
2021/03/25 10:28:56;;;;;;;16.70;11.38;;;15.50;71.90;;;;;;5077265;28;20385;-53
2021/03/25 10:31:30;;;;;;;17.25;10.93;;;15.40;70.00;;;;;;5111124;28;20469;-52
2021/03/25 10:34:03;;;;;;;16.33;11.40;;;15.30;70.90;;;;;;5111758;28;20031;-54
2021/03/25 10:36:55;;;;;;;17.70;11.15;;;15.40;72.00;;;;;;5104991;28;20028;-55
2021/03/25 10:39:34;;;;;;;16.48;11.98;;;15.50;71.10;;;;;;5107549;28;20067;-53
2021/03/25 10:42:11;;;;;;;21.90;13.40;;;15.40;71.40;;;;;;5110826;28;20035;-52
2021/03/25 10:44:37;;;;;;;27.83;13.68;;;15.20;72.80;;;;;;5111458;28;20064;-54
2021/03/25 10:47:07;;;;;;;17.90;12.55;;;15.10;72.60;;;;;;5111958;28;20107;-57
2021/03/25 10:49:43;;;;;;;20.50;13.60;;;15.00;75.20;;;;;;5093929;28;20016;-54
2021/03/25 10:52:24;;;;;;;31.65;13.77;;;15.00;73.90;;;;;;5112226;28;20031;-58
2021/03/25 10:54:51;;;;;;;22.27;13.93;;;14.90;74.10;;;;;;5110757;28;20038;-55
2021/03/25 10:57:20;;;;;;;21.00;13.13;;;14.90;75.10;;;;;;5111978;28;20023;-55
2021/03/25 10:59:54;;;;;;;20.83;13.07;;;15.00;77.20;;;;;;5111646;28;20139;-54
2021/03/25 11:02:23;;;;;;;22.98;13.10;;;14.90;75.10;;;;;;5111789;28;20023;-55
2021/03/25 11:05:14;;;;;;;27.58;15.38;;;14.70;76.30;;;;;;5111252;28;20455;-57
2021/03/25 11:07:42;;;;;;;20.00;13.75;;;14.70;77.30;;;;;;5111772;28;20492;-51
2021/03/25 11:10:33;;;;;;;25.67;15.38;;;14.70;77.20;;;;;;5111775;28;20026;-51
2021/03/25 11:13:03;;;;;;;23.88;13.98;;;14.70;78.20;;;;;;5098783;28;20386;-54
2021/03/25 11:15:35;;;;;;;24.67;14.15;;;14.70;78.00;;;;;;5111614;28;20104;-57
2021/03/25 11:18:11;;;;;;;24.65;15.68;;;14.70;77.40;;;;;;5093214;28;20023;-54
2021/03/25 11:20:38;;;;;;;22.83;15.02;;;14.50;78.30;;;;;;5110971;28;20024;-57
2021/03/25 11:23:04;;;;;;;21.88;14.05;;;14.50;79.70;;;;;;5108559;28;20020;-53
2021/03/25 11:25:31;;;;;;;30.08;15.25;;;14.50;80.00;;;;;;5109815;28;20042;-56
2021/03/25 11:28:06;;;;;;;26.45;15.50;;;14.70;79.40;;;;;;5110777;28;20123;-54
2021/03/25 11:30:39;;;;;;;27.73;15.80;;;14.80;79.20;;;;;;5110735;28;20198;-57
2021/03/25 11:33:29;;;;;;;25.95;16.17;;;14.80;79.00;;;;;;5110657;28;20048;-54
2021/03/25 11:35:57;;;;;;;25.88;15.57;;;14.90;78.50;;;;;;5093045;28;20015;-52
2021/03/25 11:38:26;;;;;;;23.95;16.10;;;14.90;78.30;;;;;;5111317;28;20028;-52
2021/03/25 11:41:20;;;;;;;28.65;17.48;;;14.90;78.60;;;;;;5111234;28;20024;-53
2021/03/25 11:43:51;;;;;;;29.65;18.15;;;14.90;78.90;;;;;;5108698;28;20035;-57
2021/03/25 11:46:46;;;;;;;25.92;16.33;;;14.80;78.40;;;;;;5092599;28;20476;-51
2021/03/25 11:49:18;;;;;;;32.95;18.70;;;14.80;79.10;;;;;;5108253;28;20437;-52
2021/03/25 11:51:51;;;;;;;45.95;17.52;;;14.80;79.40;;;;;;5111073;28;20034;-50
2021/03/25 11:54:34;;;;;;;29.67;16.55;;;14.90;79.40;;;;;;5110335;28;20030;-54
2021/03/25 11:57:05;;;;;;;29.42;17.08;;;14.90;79.70;;;;;;5111315;28;20034;-51
2021/03/25 11:59:36;;;;;;;28.13;17.55;;;14.90;79.10;;;;;;5110869;28;20024;-54
2021/03/25 12:02:17;;;;;;;30.48;18.08;;;15.10;79.30;;;;;;5110891;28;20557;-55
2021/03/25 12:04:42;;;;;;;34.80;19.60;;;15.10;79.40;;;;;;5110405;28;20413;-55
2021/03/25 12:07:11;;;;;;;31.98;19.52;;;15.10;79.40;;;;;;5091589;28;20024;-50
2021/03/25 12:09:36;;;;;;;34.63;20.50;;;15.20;79.10;;;;;;5110796;28;20493;-53
2021/03/25 12:12:02;;;;;;;31.90;22.00;;;15.20;79.40;;;;;;5110777;28;20304;-55
2021/03/25 12:14:29;;;;;;;35.03;20.98;;;15.20;79.10;;;;;;5092048;28;20051;-53
2021/03/25 12:17:00;;;;;;;37.85;20.45;;;15.20;79.40;;;;;;5110260;28;20049;-54
2021/03/25 12:19:26;;;;;;;37.15;22.42;;;15.30;80.00;;;;;;5110598;28;20020;-53
2021/03/25 12:21:52;;;;;;;37.05;21.40;;;15.30;79.60;;;;;;5110592;28;20392;-54
2021/03/25 12:24:18;;;;;;;37.17;22.50;;;15.40;80.40;;;;;;5091961;28;20028;-52
2021/03/25 12:26:44;;;;;;;32.10;21.38;;;15.60;80.40;;;;;;5091905;28;20028;-54
2021/03/25 12:29:14;;;;;;;36.35;21.38;;;15.70;80.50;;;;;;5110375;28;20024;-55
2021/03/25 12:31:42;;;;;;;38.90;22.88;;;15.80;79.20;;;;;;5110227;28;20028;-55
2021/03/25 12:34:10;;;;;;;41.20;23.27;;;15.80;78.50;;;;;;5110195;28;20024;-54
2021/03/25 12:36:36;;;;;;;40.28;23.58;;;15.80;78.60;;;;;;5110780;28;20415;-53
2021/03/25 12:39:04;;;;;;;42.72;23.13;;;15.80;78.20;;;;;;5091613;28;20030;-55
2021/03/25 12:41:43;;;;;;;37.47;24.08;;;15.90;78.10;;;;;;5110290;28;20027;-55
2021/03/25 12:44:12;;;;;;;40.75;22.63;;;15.90;77.90;;;;;;5091245;28;20028;-53
2021/03/25 12:46:38;;;;;;;45.30;25.30;;;15.90;78.20;;;;;;5110280;28;20027;-56
2021/03/25 12:49:03;;;;;;;45.40;24.58;;;15.90;78.40;;;;;;5110167;28;20039;-53
2021/03/25 12:51:29;;;;;;;41.25;23.40;;;15.90;77.80;;;;;;5092433;28;20130;-59
2021/03/25 12:53:55;;;;;;;43.88;24.23;;;15.90;77.80;;;;;;5110137;28;20503;-55
2021/03/25 12:56:34;;;;;;;43.67;26.85;;;16.00;78.80;;;;;;5092176;28;20024;-53
2021/03/25 12:59:02;;;;;;;42.30;24.88;;;16.10;78.10;;;;;;5110345;28;20121;-50
2021/03/25 13:01:30;;;;;;;42.83;26.85;;;16.20;77.40;;;;;;5110101;28;20031;-55
2021/03/25 13:03:56;;;;;;;43.33;25.80;;;16.10;75.80;;;;;;5110346;28;20034;-55
2021/03/25 13:06:23;;;;;;;44.05;25.52;;;16.00;76.40;;;;;;5110054;28;20028;-56
2021/03/25 13:08:49;;;;;;;45.67;27.08;;;16.00;76.80;;;;;;5110163;28;20022;-56
2021/03/25 13:11:25;;;;;;;46.85;25.88;;;16.10;76.20;;;;;;5092048;28;20024;-54
2021/03/25 13:13:52;;;;;;;40.25;24.38;;;16.10;74.60;;;;;;5091492;28;20087;-53